Bow, Washington
Current Conditions -  °F | °C
As of 4:35 AM on Friday 21 Nov 2014 (Local Time) from KBVS Reporting Station
Broken Clouds Broken Clouds  
Wind Chill: 54°   Ceiling: 3300
Heat Index: 54°   Visibility: 10mi
Dew Point: 45°   Wind: 9mph
Humidity: 72%   Direction: 140°SE
Pressure: 29.8"   Gusts: 17mph
Location:  48.56°N, 122.4°W
Report Text: KBVS 211235Z AUTO 14008G15KT 10SM BKN033 12/07 A2980 RMK A01 P000
Loading
Personal Weather Stations






























Interactive Weather Map New forecast layout! Learn more

10-Day Weather Forecast

Advertisements
Track Severe Weather on mobile